Time;durP1;ratioP1;P1;durP2;ratioP2;P2;SDS_P1;SDS_P2;PMS_P1;PMS_P2;Temp;Humidity;BMP_temperature;BMP_pressure;BME280_temperature;BME280_humidity;BME280_pressure;Samples;Min_cycle;Max_cycle;Signal;HPM_P1;HPM_P2
2023/01/10 00:00:21;;;;;;;5.68;3.70;;;16.10;52.10;;;;;;5043946;27;45341;-72
2023/01/10 00:02:48;;;;;;;3.70;3.13;;;16.10;52.10;;;;;;5041551;28;45140;-72
2023/01/10 00:05:16;;;;;;;4.78;3.58;;;16.10;52.10;;;;;;5044187;28;45426;-72
2023/01/10 00:07:43;;;;;;;4.88;3.70;;;16.10;52.20;;;;;;5043972;28;45506;-72
2023/01/10 00:10:11;;;;;;;3.88;3.47;;;16.10;52.20;;;;;;5043887;28;45257;-72
2023/01/10 00:15:21;;;;;;;3.83;3.45;;;16.00;52.20;;;;;;5041423;28;45309;-72
2023/01/10 00:17:48;;;;;;;4.35;3.35;;;16.00;52.40;;;;;;5042839;28;46742;-72
2023/01/10 00:20:17;;;;;;;4.68;3.45;;;16.00;52.40;;;;;;5043873;28;45186;-72
2023/01/10 00:22:44;;;;;;;5.35;3.30;;;16.00;52.40;;;;;;5043812;28;45246;-72
2023/01/10 00:25:11;;;;;;;5.78;3.50;;;16.00;52.50;;;;;;5043796;28;45336;-72
2023/01/10 00:27:38;;;;;;;4.72;3.03;;;15.90;52.50;;;;;;5043175;28;45456;-72
2023/01/10 00:30:12;;;;;;;5.28;2.88;;;15.90;52.50;;;;;;5042751;28;45240;-72
2023/01/10 00:32:40;;;;;;;5.45;3.40;;;15.90;52.60;;;;;;5043682;28;45251;-72
2023/01/10 00:35:08;;;;;;;4.20;3.30;;;15.90;52.70;;;;;;5043744;27;45236;-72
2023/01/10 00:37:36;;;;;;;3.95;3.08;;;15.80;52.70;;;;;;5043463;28;47548;-72
2023/01/10 00:40:03;;;;;;;3.85;3.20;;;15.80;52.80;;;;;;5043336;28;45252;-72
2023/01/10 00:45:13;;;;;;;2.88;2.50;;;15.80;52.90;;;;;;5012090;28;45542;-72
2023/01/10 00:47:40;;;;;;;3.70;3.00;;;15.70;52.90;;;;;;5043182;28;45426;-73
2023/01/10 00:50:08;;;;;;;5.97;3.00;;;15.70;52.90;;;;;;5040667;28;45210;-72
2023/01/10 00:52:36;;;;;;;4.30;3.08;;;15.70;53.00;;;;;;5043608;28;45260;-72
2023/01/10 00:55:03;;;;;;;4.10;3.17;;;15.80;52.90;;;;;;5043618;27;45327;-72
2023/01/10 00:57:30;;;;;;;3.10;2.80;;;15.80;52.80;;;;;;5043191;28;46449;-72
2023/01/10 00:59:57;;;;;;;3.05;2.80;;;15.80;52.70;;;;;;5043099;28;45199;-72
2023/01/10 01:02:24;;;;;;;3.42;3.13;;;15.90;52.60;;;;;;5043426;27;45286;-72
2023/01/10 01:04:50;;;;;;;3.95;2.80;;;15.90;52.60;;;;;;5043208;28;45437;-73
2023/01/10 01:07:17;;;;;;;3.08;2.78;;;15.90;52.50;;;;;;5042680;28;45255;-71
2023/01/10 01:12:30;;;;;;;4.50;3.00;;;16.00;52.40;;;;;;5043197;28;45249;-72
2023/01/10 01:14:57;;;;;;;3.35;2.72;;;16.00;53.00;;;;;;5042440;28;45459;-72
2023/01/10 01:17:23;;;;;;;3.05;2.50;;;16.00;52.20;;;;;;5042776;28;46709;-72
2023/01/10 01:19:50;;;;;;;3.50;2.50;;;16.10;52.10;;;;;;5042876;28;45308;-72
2023/01/10 01:22:17;;;;;;;2.72;2.38;;;16.10;52.10;;;;;;5042897;28;45239;-72
2023/01/10 01:24:45;;;;;;;3.90;2.78;;;16.10;52.10;;;;;;5042908;28;45399;-72
2023/01/10 01:27:12;;;;;;;2.90;2.47;;;16.10;52.10;;;;;;5042608;28;45470;-72
2023/01/10 01:29:39;;;;;;;3.05;2.72;;;16.00;52.10;;;;;;5042633;28;45158;-72
2023/01/10 01:32:06;;;;;;;2.90;2.42;;;16.00;52.10;;;;;;5042756;28;45313;-73
2023/01/10 01:34:32;;;;;;;2.83;2.53;;;16.00;52.20;;;;;;5042615;28;45391;-72
2023/01/10 01:36:59;;;;;;;3.13;2.45;;;16.00;52.20;;;;;;5042445;28;46411;-72
2023/01/10 01:39:26;;;;;;;3.50;2.50;;;16.00;52.30;;;;;;5042937;28;45270;-72
2023/01/10 01:41:57;;;;;;;2.83;2.45;;;16.00;52.30;;;;;;5042561;28;45188;-72
2023/01/10 01:44:24;;;;;;;3.15;2.63;;;15.90;52.30;;;;;;5045773;28;45394;-72
2023/01/10 01:46:56;;;;;;;2.83;2.53;;;15.90;52.40;;;;;;5045511;28;46692;-72
2023/01/10 01:49:23;;;;;;;3.22;2.33;;;15.90;52.40;;;;;;5045589;28;45244;-72
2023/01/10 01:51:53;;;;;;;3.58;2.67;;;15.90;52.50;;;;;;5045759;28;45125;-72
2023/01/10 01:54:20;;;;;;;3.10;2.40;;;15.80;52.50;;;;;;5045799;28;45297;-72
2023/01/10 01:56:50;;;;;;;3.33;2.50;;;15.80;52.60;;;;;;5044753;28;46389;-73
2023/01/10 01:59:20;;;;;;;2.38;2.10;;;15.80;52.70;;;;;;5045321;28;45140;-72
2023/01/10 02:01:47;;;;;;;2.42;2.22;;;15.70;52.60;;;;;;5045572;28;45231;-73
2023/01/10 02:04:17;;;;;;;3.15;2.22;;;15.70;52.70;;;;;;5045602;28;45235;-73
2023/01/10 02:06:44;;;;;;;2.83;2.45;;;15.70;52.70;;;;;;5045426;28;46430;-72
2023/01/10 02:09:15;;;;;;;2.65;2.25;;;15.70;52.90;;;;;;5045736;28;45268;-72
2023/01/10 02:11:42;;;;;;;3.05;2.20;;;15.70;52.80;;;;;;5045329;28;45221;-72
2023/01/10 02:14:09;;;;;;;2.47;2.13;;;15.70;52.70;;;;;;5045438;28;45449;-73
2023/01/10 02:16:37;;;;;;;2.30;2.10;;;15.80;52.60;;;;;;5045240;28;46786;-73
2023/01/10 02:19:05;;;;;;;2.25;2.00;;;15.80;52.50;;;;;;5045152;28;45324;-72
2023/01/10 02:22:01;;;;;;;3.80;2.17;;;15.90;52.40;;;;;;5045297;28;45201;-72
2023/01/10 02:25:03;;;;;;;2.13;1.88;;;15.90;52.20;;;;;;5039838;27;45540;-72
2023/01/10 02:27:34;;;;;;;2.58;1.75;;;15.90;52.10;;;;;;5047699;28;45478;-72
2023/01/10 02:30:33;;;;;;;3.40;2.15;;;16.00;51.90;;;;;;5045014;28;45280;-72
2023/01/10 02:33:04;;;;;;;2.35;2.03;;;16.00;51.90;;;;;;5044376;28;45316;-72
2023/01/10 02:35:39;;;;;;;1.90;1.75;;;16.10;51.80;;;;;;5045187;28;45521;-72
2023/01/10 02:38:11;;;;;;;3.60;2.40;;;16.10;51.80;;;;;;5044633;28;45475;-72
2023/01/10 02:40:43;;;;;;;3.53;2.17;;;16.10;51.70;;;;;;5044968;28;45137;-72
2023/01/10 02:43:12;;;;;;;3.45;2.35;;;16.10;51.60;;;;;;5045016;28;45224;-72
2023/01/10 02:45:40;;;;;;;2.20;1.70;;;16.10;51.80;;;;;;5045141;28;45213;-72
2023/01/10 02:48:08;;;;;;;3.88;2.00;;;16.00;51.70;;;;;;5044935;28;45385;-72
2023/01/10 02:50:50;;;;;;;3.42;1.83;;;16.00;51.70;;;;;;5044867;28;45237;-72
2023/01/10 02:53:19;;;;;;;3.25;2.20;;;16.00;51.70;;;;;;5044604;28;45331;-71
2023/01/10 02:56:07;;;;;;;2.78;1.98;;;16.00;51.80;;;;;;5045198;28;45290;-72
2023/01/10 02:58:40;;;;;;;2.40;1.80;;;16.00;51.80;;;;;;5031253;27;46729;-72
2023/01/10 03:01:09;;;;;;;3.17;1.70;;;15.90;51.80;;;;;;5044618;27;45130;-72
2023/01/10 03:03:40;;;;;;;2.97;1.80;;;15.90;51.90;;;;;;5044783;28;45251;-71
2023/01/10 03:06:17;;;;;;;1.55;1.45;;;15.90;51.90;;;;;;5045050;28;45214;-72
2023/01/10 03:08:49;;;;;;;2.13;1.80;;;15.90;52.00;;;;;;5044466;28;45253;-71
2023/01/10 03:11:38;;;;;;;1.70;1.60;;;15.80;52.00;;;;;;5044694;27;46403;-73
2023/01/10 03:14:02;;;;;;;1.92;1.48;;;15.80;52.00;;;;;;5044525;27;45281;-71
2023/01/10 03:16:29;;;;;;;2.70;1.85;;;15.80;52.10;;;;;;5044845;28;45130;-71
2023/01/10 03:18:59;;;;;;;2.22;1.75;;;15.80;52.20;;;;;;5044386;28;46279;-72
2023/01/10 03:21:27;;;;;;;2.13;1.77;;;15.70;52.20;;;;;;5044364;27;45313;-72
2023/01/10 03:23:56;;;;;;;3.22;1.63;;;15.70;52.20;;;;;;5044632;28;45255;-72
2023/01/10 03:26:26;;;;;;;2.80;1.80;;;15.70;52.30;;;;;;5044884;28;45470;-71
2023/01/10 03:28:56;;;;;;;2.30;1.67;;;15.70;52.80;;;;;;5043873;28;45208;-74
2023/01/10 03:31:25;;;;;;;1.50;1.40;;;15.80;52.10;;;;;;5044340;28;45248;-71
2023/01/10 03:33:52;;;;;;;3.47;1.52;;;15.80;52.00;;;;;;5044391;28;45191;-71
2023/01/10 03:36:29;;;;;;;2.17;1.67;;;15.90;51.90;;;;;;5044608;28;45231;-72
2023/01/10 03:38:57;;;;;;;1.83;1.35;;;15.90;51.80;;;;;;5044214;28;47333;-72
2023/01/10 03:41:30;;;;;;;2.95;1.40;;;15.90;51.70;;;;;;5044149;28;45315;-72
2023/01/10 03:46:46;;;;;;;2.05;1.40;;;15.90;51.60;;;;;;5041963;28;45330;-73
2023/01/10 03:49:13;;;;;;;1.35;1.25;;;16.00;51.60;;;;;;5043989;28;46720;-73
2023/01/10 03:51:41;;;;;;;1.52;1.40;;;16.00;51.50;;;;;;5044143;28;45214;-73
2023/01/10 03:54:08;;;;;;;3.35;1.85;;;16.00;51.40;;;;;;5044092;28;45414;-74
2023/01/10 03:56:44;;;;;;;1.73;1.35;;;16.00;51.30;;;;;;5044936;28;45329;-73
2023/01/10 03:59:11;;;;;;;1.50;1.40;;;16.00;51.30;;;;;;5043940;28;46683;-73
2023/01/10 04:01:38;;;;;;;1.35;1.25;;;16.00;51.40;;;;;;5043916;28;45153;-73
2023/01/10 04:04:05;;;;;;;1.60;1.40;;;16.00;51.40;;;;;;5044193;28;45243;-73
2023/01/10 04:06:32;;;;;;;2.10;1.50;;;16.00;51.50;;;;;;5043090;28;45125;-73
2023/01/10 04:09:00;;;;;;;1.80;1.40;;;16.00;51.50;;;;;;5043921;28;46640;-73
2023/01/10 04:11:27;;;;;;;1.38;1.27;;;15.90;51.50;;;;;;5043105;28;45353;-73
2023/01/10 04:13:53;;;;;;;1.95;1.30;;;15.90;51.60;;;;;;5043987;28;45129;-73
2023/01/10 04:16:20;;;;;;;1.55;1.45;;;15.90;51.60;;;;;;5044205;28;45508;-74
2023/01/10 04:18:47;;;;;;;2.47;1.40;;;15.90;51.70;;;;;;5043725;28;45467;-73
2023/01/10 04:21:14;;;;;;;1.42;1.27;;;15.80;51.70;;;;;;5043730;28;45339;-74
2023/01/10 04:23:41;;;;;;;2.17;1.50;;;15.80;51.70;;;;;;5043801;28;45409;-73
2023/01/10 04:26:09;;;;;;;1.50;1.25;;;15.80;51.80;;;;;;5043954;28;45228;-73
2023/01/10 04:28:36;;;;;;;1.63;1.20;;;15.80;51.80;;;;;;5043357;28;46719;-73
2023/01/10 04:31:02;;;;;;;2.17;1.23;;;15.70;51.80;;;;;;5043544;28;45275;-73
2023/01/10 04:33:29;;;;;;;1.75;1.25;;;15.70;51.90;;;;;;5043695;28;45370;-73
2023/01/10 04:35:56;;;;;;;2.95;1.40;;;15.70;52.00;;;;;;5044096;28;45420;-73
2023/01/10 04:38:23;;;;;;;1.67;1.20;;;15.70;52.00;;;;;;5043474;28;46387;-73
2023/01/10 04:40:52;;;;;;;1.02;0.93;;;15.70;52.00;;;;;;5043402;28;45198;-73
2023/01/10 04:43:21;;;;;;;1.65;1.23;;;15.70;51.90;;;;;;5043471;28;45334;-73
2023/01/10 04:45:47;;;;;;;1.38;1.27;;;15.70;51.80;;;;;;5043680;27;45217;-73
2023/01/10 04:48:14;;;;;;;1.05;0.95;;;15.80;51.80;;;;;;5043205;28;46297;-73
2023/01/10 04:50:41;;;;;;;2.20;1.40;;;15.80;51.70;;;;;;5043504;27;45186;-73
2023/01/10 04:53:08;;;;;;;2.35;1.48;;;15.80;51.60;;;;;;5043124;28;45265;-73
2023/01/10 04:55:35;;;;;;;2.25;1.38;;;15.80;51.60;;;;;;5043107;28;45266;-73
2023/01/10 04:58:02;;;;;;;2.40;1.00;;;15.90;51.50;;;;;;5043335;28;45432;-72
2023/01/10 05:00:30;;;;;;;1.70;1.20;;;15.90;51.40;;;;;;5043048;27;45146;-73
2023/01/10 05:02:57;;;;;;;1.50;1.20;;;15.90;51.90;;;;;;5043454;28;45256;-73
2023/01/10 05:05:24;;;;;;;1.80;1.20;;;16.00;51.30;;;;;;5043587;28;45395;-73
2023/01/10 05:07:51;;;;;;;1.20;0.77;;;16.00;51.20;;;;;;5043135;27;46717;-73
2023/01/10 05:10:18;;;;;;;2.20;1.20;;;16.00;51.20;;;;;;5043119;28;45248;-73
2023/01/10 05:12:45;;;;;;;0.90;0.90;;;16.00;51.70;;;;;;5043300;28;45191;-73
2023/01/10 05:15:12;;;;;;;1.33;1.20;;;16.00;51.20;;;;;;5043087;28;45272;-74
2023/01/10 05:17:40;;;;;;;1.38;1.20;;;16.00;51.20;;;;;;5044846;28;45469;-73
2023/01/10 05:20:08;;;;;;;2.05;1.05;;;16.00;51.20;;;;;;5045971;28;45308;-73
2023/01/10 05:22:35;;;;;;;1.30;1.10;;;15.90;51.20;;;;;;5046178;27;45291;-73
2023/01/10 05:25:02;;;;;;;1.10;1.00;;;15.90;51.20;;;;;;5046171;28;45189;-73
2023/01/10 05:27:29;;;;;;;3.03;1.27;;;15.90;51.20;;;;;;5045733;28;46390;-73
2023/01/10 05:29:55;;;;;;;1.92;0.77;;;15.90;51.30;;;;;;5046161;28;45268;-73
2023/01/10 05:32:22;;;;;;;1.80;1.00;;;15.90;51.30;;;;;;5046007;28;45334;-73
2023/01/10 05:34:50;;;;;;;1.23;1.00;;;15.80;51.30;;;;;;5046264;28;45168;-73
2023/01/10 05:37:17;;;;;;;1.50;1.08;;;15.80;51.40;;;;;;5045036;28;45498;-73
2023/01/10 05:39:44;;;;;;;1.20;1.10;;;15.80;51.40;;;;;;5045610;28;45339;-73
2023/01/10 05:42:11;;;;;;;1.02;0.85;;;15.80;51.50;;;;;;5045920;28;45344;-73
2023/01/10 05:44:38;;;;;;;1.08;0.95;;;15.70;51.50;;;;;;5046157;28;45362;-73
2023/01/10 05:47:05;;;;;;;0.80;0.80;;;15.70;51.50;;;;;;5045725;28;46391;-73
2023/01/10 05:49:31;;;;;;;0.90;0.88;;;15.70;51.60;;;;;;5045676;28;44626;-73
2023/01/10 05:52:00;;;;;;;1.70;0.98;;;15.70;51.60;;;;;;5045888;28;45234;-73
2023/01/10 05:54:28;;;;;;;1.30;1.00;;;15.70;51.70;;;;;;5045697;28;45327;-73
2023/01/10 05:56:55;;;;;;;2.45;1.20;;;15.70;51.60;;;;;;5045461;28;46933;-73
2023/01/10 05:59:22;;;;;;;1.20;0.90;;;15.70;51.50;;;;;;5045687;28;45246;-73
2023/01/10 06:01:48;;;;;;;1.95;1.00;;;15.80;51.50;;;;;;5045839;28;45137;-73
2023/01/10 06:04:15;;;;;;;1.83;0.90;;;15.80;51.30;;;;;;5045564;28;45510;-73
2023/01/10 06:06:42;;;;;;;2.05;1.10;;;15.80;51.20;;;;;;5045285;28;47310;-73
2023/01/10 06:09:10;;;;;;;1.50;1.13;;;15.90;51.80;;;;;;5045241;28;45168;-74
2023/01/10 06:11:37;;;;;;;1.80;1.10;;;15.90;51.20;;;;;;5045477;28;45231;-73
2023/01/10 06:14:06;;;;;;;1.63;1.10;;;15.90;51.10;;;;;;5045741;28;45327;-73
2023/01/10 06:16:32;;;;;;;0.98;0.80;;;15.90;51.10;;;;;;5045609;27;45423;-73
2023/01/10 06:18:59;;;;;;;0.88;0.88;;;15.90;51.00;;;;;;5045337;28;45199;-72
2023/01/10 06:21:26;;;;;;;3.22;1.00;;;15.90;50.90;;;;;;5044755;28;45247;-73
2023/01/10 06:23:53;;;;;;;1.10;0.80;;;16.00;51.50;;;;;;5045219;28;45204;-73
2023/01/10 06:26:21;;;;;;;1.23;0.90;;;16.00;50.80;;;;;;5042629;28;45290;-73
2023/01/10 06:28:48;;;;;;;1.10;0.93;;;16.00;50.80;;;;;;5043947;28;45357;-73
2023/01/10 06:31:15;;;;;;;0.93;0.93;;;15.90;50.80;;;;;;5045329;28;45302;-73
2023/01/10 06:33:42;;;;;;;2.00;0.90;;;15.90;50.80;;;;;;5045374;28;45371;-73
2023/01/10 06:36:09;;;;;;;0.80;0.80;;;15.90;50.90;;;;;;5045071;28;46966;-73
2023/01/10 06:38:36;;;;;;;1.35;1.10;;;15.90;50.90;;;;;;5045162;28;45267;-73
2023/01/10 06:41:11;;;;;;;0.80;0.65;;;15.90;51.00;;;;;;5045228;28;45285;-74
2023/01/10 06:43:40;;;;;;;0.95;0.70;;;15.80;50.90;;;;;;5045159;28;45228;-73
2023/01/10 06:46:08;;;;;;;0.82;0.80;;;15.80;51.00;;;;;;5044838;28;45483;-73
2023/01/10 06:48:35;;;;;;;0.70;0.70;;;15.80;51.10;;;;;;5045054;28;45322;-73
2023/01/10 06:51:02;;;;;;;1.33;1.17;;;15.80;51.10;;;;;;5045088;28;45224;-73
2023/01/10 06:53:29;;;;;;;1.00;0.80;;;15.70;51.10;;;;;;5045354;28;45426;-73
2023/01/10 06:55:56;;;;;;;0.82;0.82;;;15.70;51.20;;;;;;5044705;28;45326;-73
2023/01/10 06:58:23;;;;;;;0.90;0.90;;;15.70;51.20;;;;;;5044929;28;45271;-73
2023/01/10 07:00:51;;;;;;;1.30;1.08;;;15.70;51.90;;;;;;5045067;28;45416;-73
2023/01/10 07:03:18;;;;;;;2.17;1.02;;;15.70;51.30;;;;;;5045178;28;45542;-73
2023/01/10 07:05:45;;;;;;;1.02;0.90;;;15.70;51.20;;;;;;5044459;28;45464;-72
2023/01/10 07:08:11;;;;;;;2.30;0.68;;;15.70;51.10;;;;;;5044036;28;45187;-73
2023/01/10 07:10:40;;;;;;;1.75;0.90;;;15.80;51.10;;;;;;5045020;28;45207;-73
2023/01/10 07:13:07;;;;;;;1.85;1.25;;;15.80;51.00;;;;;;5045143;28;45252;-73
2023/01/10 07:15:34;;;;;;;1.50;1.08;;;15.80;50.90;;;;;;5044418;28;45286;-73
2023/01/10 07:18:02;;;;;;;1.33;0.90;;;15.80;50.80;;;;;;5044788;28;45160;-74
2023/01/10 07:20:29;;;;;;;1.08;0.90;;;15.90;50.80;;;;;;5044516;28;45189;-73
2023/01/10 07:22:56;;;;;;;2.63;0.80;;;15.90;50.70;;;;;;5045129;27;45312;-73
2023/01/10 07:25:22;;;;;;;0.98;0.85;;;16.00;50.60;;;;;;5044303;28;46674;-73
2023/01/10 07:27:49;;;;;;;1.45;1.05;;;16.00;50.50;;;;;;5044212;27;45267;-73
2023/01/10 07:30:17;;;;;;;1.55;1.02;;;16.00;50.40;;;;;;5044528;28;45126;-73
2023/01/10 07:32:44;;;;;;;1.17;0.88;;;16.00;50.30;;;;;;5044745;27;45451;-73
2023/01/10 07:35:12;;;;;;;1.50;1.00;;;16.00;51.00;;;;;;5044059;28;46761;-73
2023/01/10 07:37:39;;;;;;;1.02;0.93;;;16.00;50.30;;;;;;5044257;28;45328;-73
2023/01/10 07:40:07;;;;;;;3.15;1.10;;;16.00;50.40;;;;;;5044424;28;45192;-73
2023/01/10 07:42:33;;;;;;;1.95;1.00;;;16.00;50.40;;;;;;5044625;28;45218;-73
2023/01/10 07:45:00;;;;;;;1.42;1.10;;;16.00;50.50;;;;;;5044034;28;46365;-73
2023/01/10 07:47:27;;;;;;;2.55;1.20;;;16.00;50.50;;;;;;5044303;28;45344;-73
2023/01/10 07:49:54;;;;;;;1.38;1.00;;;15.90;50.50;;;;;;5043762;28;45223;-72
2023/01/10 07:52:22;;;;;;;1.90;1.00;;;15.90;50.60;;;;;;5044144;28;45171;-73
2023/01/10 07:54:49;;;;;;;0.95;0.90;;;15.90;50.60;;;;;;5043920;28;45481;-73
2023/01/10 07:57:16;;;;;;;1.15;0.90;;;15.90;50.70;;;;;;5044076;28;45305;-72
2023/01/10 07:59:43;;;;;;;1.55;1.17;;;15.80;50.70;;;;;;5043985;28;45378;-74
2023/01/10 08:02:10;;;;;;;1.15;1.05;;;15.80;50.80;;;;;;5044276;28;45383;-73
2023/01/10 08:04:37;;;;;;;1.77;1.10;;;15.80;50.80;;;;;;5043776;28;45498;-73
2023/01/10 08:07:04;;;;;;;3.40;1.25;;;15.80;50.90;;;;;;5043857;28;45218;-74
2023/01/10 08:09:32;;;;;;;1.30;0.90;;;15.70;50.90;;;;;;5044261;28;45368;-73
2023/01/10 08:11:59;;;;;;;1.60;1.30;;;15.70;51.00;;;;;;5044179;28;45229;-73
2023/01/10 08:14:26;;;;;;;3.47;1.17;;;15.70;51.00;;;;;;5043694;28;47498;-73
2023/01/10 08:16:53;;;;;;;4.85;1.10;;;15.70;51.00;;;;;;5043876;28;45173;-73
2023/01/10 08:19:20;;;;;;;1.05;0.88;;;15.70;51.00;;;;;;5044066;28;45256;-73
2023/01/10 08:21:46;;;;;;;1.92;1.10;;;15.70;50.90;;;;;;5043879;28;45458;-73
2023/01/10 08:24:13;;;;;;;3.80;1.45;;;15.70;50.80;;;;;;5043468;28;47278;-73
2023/01/10 08:26:41;;;;;;;1.13;1.02;;;15.80;50.80;;;;;;5043759;28;45299;-73
2023/01/10 08:29:08;;;;;;;2.85;1.38;;;15.80;50.70;;;;;;5043459;28;45243;-73
2023/01/10 08:31:36;;;;;;;1.83;1.30;;;15.90;50.50;;;;;;5043849;28;45294;-73
2023/01/10 08:34:03;;;;;;;1.27;1.10;;;15.90;50.40;;;;;;5042821;28;45555;-72
2023/01/10 08:36:30;;;;;;;1.10;1.00;;;16.00;50.30;;;;;;5043583;28;45492;-73
2023/01/10 08:38:57;;;;;;;3.30;1.58;;;16.00;50.20;;;;;;5043572;28;45127;-73
2023/01/10 08:41:23;;;;;;;2.25;1.50;;;16.10;50.20;;;;;;5043826;28;45160;-73
2023/01/10 08:43:52;;;;;;;2.97;1.40;;;16.10;50.10;;;;;;5040850;28;46179;-73
2023/01/10 08:46:19;;;;;;;2.85;1.67;;;16.10;50.00;;;;;;5043744;28;45261;-73
2023/01/10 08:48:46;;;;;;;2.63;1.50;;;16.10;50.10;;;;;;5043439;28;45232;-73
2023/01/10 08:51:13;;;;;;;2.05;1.13;;;16.10;50.10;;;;;;5043624;28;45214;-72
2023/01/10 08:53:40;;;;;;;3.05;1.42;;;16.10;50.10;;;;;;5046170;28;45686;-73
2023/01/10 08:56:07;;;;;;;6.07;1.63;;;16.10;50.10;;;;;;5043859;28;45313;-73
2023/01/10 08:58:34;;;;;;;2.25;1.80;;;16.00;50.00;;;;;;5046479;28;45293;-74
2023/01/10 09:01:05;;;;;;;3.83;1.52;;;16.10;50.20;;;;;;5046736;28;45207;-74
2023/01/10 09:03:32;;;;;;;1.77;1.55;;;16.10;50.20;;;;;;5045898;28;45717;-73
2023/01/10 09:05:59;;;;;;;1.95;1.48;;;16.00;50.10;;;;;;5046238;28;45236;-73
2023/01/10 09:08:26;;;;;;;4.05;1.50;;;16.00;50.20;;;;;;5046277;28;45223;-74
2023/01/10 09:10:53;;;;;;;4.95;2.10;;;16.00;50.20;;;;;;5046439;28;45123;-73
2023/01/10 09:13:22;;;;;;;3.40;1.90;;;16.00;50.30;;;;;;5045853;28;46373;-73
2023/01/10 09:15:51;;;;;;;3.10;2.00;;;16.00;50.40;;;;;;5046498;28;45437;-73
2023/01/10 09:18:19;;;;;;;4.80;2.22;;;16.00;50.50;;;;;;5045780;28;45179;-72
2023/01/10 09:20:46;;;;;;;6.60;2.00;;;15.90;50.40;;;;;;5046301;28;45393;-73
2023/01/10 09:23:16;;;;;;;8.48;2.20;;;15.90;50.50;;;;;;5045739;28;45475;-73
2023/01/10 09:25:43;;;;;;;4.90;2.13;;;15.90;50.60;;;;;;5046153;28;45217;-72
2023/01/10 09:28:10;;;;;;;2.70;1.98;;;15.90;50.60;;;;;;5046212;27;45188;-74
2023/01/10 09:30:36;;;;;;;4.75;2.08;;;15.90;50.70;;;;;;5046353;28;45367;-73
2023/01/10 09:33:03;;;;;;;5.50;2.35;;;15.90;50.70;;;;;;5045836;28;46721;-73
2023/01/10 09:35:32;;;;;;;3.50;2.67;;;15.90;50.80;;;;;;5045610;28;45354;-72
2023/01/10 09:38:00;;;;;;;3.28;2.08;;;15.80;50.80;;;;;;5045909;28;45218;-73
2023/01/10 09:40:33;;;;;;;3.67;2.05;;;15.80;50.90;;;;;;5046632;28;45311;-73
2023/01/10 09:43:05;;;;;;;6.40;2.50;;;15.90;50.80;;;;;;5045873;28;46322;-73
2023/01/10 09:45:36;;;;;;;4.65;2.20;;;15.90;50.70;;;;;;5045459;28;45171;-73
2023/01/10 09:48:04;;;;;;;5.18;2.45;;;16.00;50.70;;;;;;5045857;28;45268;-74
2023/01/10 09:50:37;;;;;;;3.13;2.30;;;16.00;50.70;;;;;;5046043;28;45347;-73
2023/01/10 09:53:05;;;;;;;3.67;2.50;;;16.00;50.60;;;;;;5045441;28;45294;-73
2023/01/10 09:55:33;;;;;;;6.18;2.88;;;16.10;50.60;;;;;;5043078;28;45162;-73
2023/01/10 09:58:01;;;;;;;5.15;2.63;;;16.10;50.50;;;;;;5045608;28;45256;-73
2023/01/10 10:00:35;;;;;;;4.90;2.75;;;16.10;50.40;;;;;;5045530;28;45289;-73
2023/01/10 10:03:02;;;;;;;5.13;2.85;;;16.10;50.30;;;;;;5044245;28;45259;-73
2023/01/10 10:05:29;;;;;;;3.95;2.38;;;16.20;50.30;;;;;;5045321;28;45321;-73
2023/01/10 10:07:58;;;;;;;5.78;2.72;;;16.20;50.30;;;;;;5045678;28;45283;-73
2023/01/10 10:10:26;;;;;;;5.15;2.65;;;16.20;50.30;;;;;;5045650;28;45272;-73
2023/01/10 10:13:02;;;;;;;5.63;2.92;;;16.20;50.20;;;;;;5044617;28;45375;-73
2023/01/10 10:15:32;;;;;;;6.30;3.08;;;16.20;50.20;;;;;;5044450;28;45366;-73
2023/01/10 10:18:06;;;;;;;3.83;2.75;;;16.20;50.30;;;;;;5045217;28;45298;-73
2023/01/10 10:20:39;;;;;;;4.15;2.63;;;16.20;50.30;;;;;;5045379;28;45221;-73
2023/01/10 10:23:16;;;;;;;6.25;3.15;;;16.20;50.30;;;;;;5045229;28;46534;-73
2023/01/10 10:25:52;;;;;;;8.48;3.03;;;16.20;50.30;;;;;;5046576;28;45142;-73
2023/01/10 10:28:38;;;;;;;5.13;3.05;;;16.20;50.40;;;;;;5045080;28;45494;-73
2023/01/10 10:31:08;;;;;;;4.18;3.10;;;16.20;50.50;;;;;;5044797;28;45219;-73
2023/01/10 10:33:42;;;;;;;6.50;3.28;;;16.20;50.50;;;;;;5044425;27;45465;-73
2023/01/10 10:36:11;;;;;;;6.50;2.85;;;16.20;50.50;;;;;;5044840;28;45297;-73
2023/01/10 10:38:39;;;;;;;4.68;2.83;;;16.20;50.40;;;;;;5045123;28;45213;-73
2023/01/10 10:41:09;;;;;;;5.25;2.67;;;16.20;50.40;;;;;;5045644;28;45245;-73
2023/01/10 10:43:36;;;;;;;5.45;2.80;;;16.20;50.40;;;;;;5044969;28;46451;-73
2023/01/10 10:46:04;;;;;;;5.05;2.78;;;16.20;50.40;;;;;;5044897;27;45164;-73
2023/01/10 10:48:31;;;;;;;5.85;3.05;;;16.20;50.30;;;;;;5045067;28;45254;-73
2023/01/10 10:51:04;;;;;;;5.10;2.97;;;16.30;50.50;;;;;;5042376;28;45259;-73
2023/01/10 10:53:32;;;;;;;5.40;3.05;;;16.30;50.40;;;;;;5044604;27;45438;-73
2023/01/10 10:56:00;;;;;;;6.03;3.30;;;16.20;50.50;;;;;;5044804;27;45251;-73
2023/01/10 10:58:30;;;;;;;4.85;3.20;;;16.20;50.50;;;;;;5044978;27;45310;-74
2023/01/10 11:00:57;;;;;;;6.72;3.00;;;16.20;50.50;;;;;;5045042;28;45540;-73
2023/01/10 11:03:31;;;;;;;4.30;2.75;;;16.20;50.50;;;;;;5044503;27;45244;-73
2023/01/10 11:05:57;;;;;;;5.78;2.83;;;16.30;50.50;;;;;;5044445;28;45254;-73
2023/01/10 11:08:24;;;;;;;5.22;2.95;;;16.30;50.50;;;;;;5044786;28;45240;-73
2023/01/10 11:10:53;;;;;;;4.10;2.83;;;16.30;50.40;;;;;;5044983;28;45273;-73
2023/01/10 11:13:30;;;;;;;5.53;3.33;;;16.40;50.30;;;;;;5044498;27;46423;-73
2023/01/10 11:15:57;;;;;;;3.78;2.70;;;16.40;50.20;;;;;;5044213;27;45322;-73
2023/01/10 11:18:25;;;;;;;5.07;3.05;;;16.50;50.10;;;;;;5044881;28;45277;-73
2023/01/10 11:20:56;;;;;;;7.78;3.60;;;16.40;50.20;;;;;;5044971;28;45136;-73
2023/01/10 11:23:25;;;;;;;5.35;2.80;;;16.40;50.30;;;;;;5044398;27;45542;-73
2023/01/10 11:25:52;;;;;;;4.57;3.13;;;16.50;50.20;;;;;;5043761;28;45196;-72
2023/01/10 11:28:22;;;;;;;4.00;3.05;;;16.60;50.10;;;;;;5044215;27;45741;-74
2023/01/10 11:30:49;;;;;;;5.88;3.13;;;16.70;49.80;;;;;;5044910;28;45247;-74
2023/01/10 11:33:19;;;;;;;5.03;3.38;;;16.70;50.30;;;;;;5044367;27;46593;-74
2023/01/10 11:35:57;;;;;;;6.22;3.08;;;16.60;49.80;;;;;;5044640;28;45262;-73
2023/01/10 11:38:28;;;;;;;5.43;3.33;;;16.60;49.90;;;;;;5044475;27;45297;-73
2023/01/10 11:40:56;;;;;;;6.13;3.05;;;16.60;49.90;;;;;;5044294;27;45243;-73
2023/01/10 11:43:27;;;;;;;5.32;3.20;;;16.60;50.00;;;;;;5043846;27;46376;-74
2023/01/10 11:45:55;;;;;;;6.70;3.20;;;16.60;50.00;;;;;;5044133;28;45138;-74
2023/01/10 11:48:22;;;;;;;3.85;3.08;;;16.60;49.90;;;;;;5044360;27;45212;-73
2023/01/10 11:50:50;;;;;;;4.35;2.95;;;16.60;50.00;;;;;;5044374;28;45237;-73
2023/01/10 11:53:31;;;;;;;6.88;2.88;;;16.50;50.10;;;;;;5043717;28;45273;-73
2023/01/10 11:55:58;;;;;;;5.80;2.97;;;16.50;50.20;;;;;;5044089;27;45384;-73
2023/01/10 11:58:30;;;;;;;5.95;2.97;;;16.50;50.30;;;;;;5044395;27;45370;-73
2023/01/10 12:00:57;;;;;;;5.22;3.30;;;16.40;50.40;;;;;;5044281;27;45442;-73
2023/01/10 12:03:26;;;;;;;5.30;3.03;;;16.40;50.40;;;;;;5043823;28;45483;-73
2023/01/10 12:05:54;;;;;;;4.65;3.00;;;16.40;50.60;;;;;;5043630;28;45180;-73
2023/01/10 12:08:26;;;;;;;5.22;3.10;;;16.30;50.70;;;;;;5043977;27;45247;-73
2023/01/10 12:11:01;;;;;;;5.70;3.30;;;16.30;50.80;;;;;;5044088;28;45133;-73
2023/01/10 12:13:30;;;;;;;7.47;3.05;;;16.20;50.80;;;;;;5043289;28;45716;-73
2023/01/10 12:16:15;;;;;;;5.95;3.20;;;16.20;50.90;;;;;;5043696;28;45230;-73
2023/01/10 12:18:42;;;;;;;4.50;2.72;;;16.20;51.00;;;;;;5044026;28;45219;-73
2023/01/10 12:21:09;;;;;;;4.68;2.92;;;16.20;51.10;;;;;;5043966;27;45286;-73
2023/01/10 12:23:40;;;;;;;4.68;2.55;;;16.10;51.10;;;;;;5043441;27;45463;-73
2023/01/10 12:26:07;;;;;;;5.03;3.15;;;16.10;51.20;;;;;;5042475;27;45326;-73
2023/01/10 12:28:35;;;;;;;3.15;2.40;;;16.10;51.20;;;;;;5043063;27;45231;-73
2023/01/10 12:31:04;;;;;;;5.47;2.50;;;16.20;51.10;;;;;;5044129;28;45396;-73
2023/01/10 12:33:33;;;;;;;4.22;2.70;;;16.20;51.00;;;;;;5043497;28;45213;-73
2023/01/10 12:36:02;;;;;;;3.60;2.65;;;16.30;50.70;;;;;;5043150;28;45415;-72
2023/01/10 12:44:10;;;;;;;2.92;2.13;;;16.30;50.60;;;;;;5041078;28;45318;-73
2023/01/10 12:44:13;;;;;;;4.10;2.47;;;16.30;50.70;;;;;;5043115;28;46109;-74
2023/01/10 12:46:43;;;;;;;2.75;2.17;;;16.30;50.80;;;;;;5043288;28;45302;-73
2023/01/10 12:49:13;;;;;;;4.47;2.80;;;16.30;50.80;;;;;;5043532;27;45179;-73
2023/01/10 12:51:40;;;;;;;4.03;2.35;;;16.30;50.70;;;;;;5043686;28;45321;-73
2023/01/10 12:54:12;;;;;;;4.50;2.40;;;16.30;50.70;;;;;;5042359;28;45440;-73
2023/01/10 12:56:39;;;;;;;3.25;2.42;;;16.30;50.70;;;;;;5042421;28;45288;-73
2023/01/10 12:59:11;;;;;;;5.13;2.47;;;16.30;50.70;;;;;;5043421;28;45291;-73
2023/01/10 13:01:41;;;;;;;3.78;2.15;;;16.30;50.70;;;;;;5043381;28;45256;-73
2023/01/10 13:04:10;;;;;;;3.13;2.38;;;16.30;50.70;;;;;;5042863;28;46310;-73
2023/01/10 13:06:38;;;;;;;2.58;2.13;;;16.30;50.60;;;;;;5043015;28;45184;-74
2023/01/10 13:09:06;;;;;;;4.43;2.70;;;16.30;50.60;;;;;;5043275;28;45336;-73